<?xml version="1.0" encoding="UTF-8" standalone="no" ?>
<gpx xmlns="http://www.topografix.com/GPX/1/1" xmlns:xsi="http://www.w3.org/2001/XMLSchema-instance" xsi:schemaLocation="http://www.topografix.com/GPX/1/1 http://www.topografix.com/GPX/1/1/gpx.xsd" version="1.1" creator="VisuGPX - https://www.visugpx.com">
  <metadata>
    <name>Osselle rectifié</name>
  </metadata>
  <trk>
    <name><![CDATA[Osselle rectifié]]></name>
    <trkseg>
      <trkpt lat="47.13213" lon="5.83496">
        <ele>232.88137</ele>
        <time>2022-03-27T15:58:11.597Z</time>
      </trkpt>
      <trkpt lat="47.13213" lon="5.83494">
        <ele>232.88137</ele>
        <time>2022-03-27T15:58:13.325Z</time>
      </trkpt>
      <trkpt lat="47.13213" lon="5.83487">
        <ele>232.88137</ele>
        <time>2022-03-27T15:58:19.410Z</time>
      </trkpt>
      <trkpt lat="47.13227" lon="5.83468">
        <ele>232.88137</ele>
        <time>2022-03-27T15:58:41.126Z</time>
      </trkpt>
      <trkpt lat="47.13289" lon="5.8347">
        <ele>232.88137</ele>
        <time>2022-03-27T15:59:54.696Z</time>
      </trkpt>
      <trkpt lat="47.13315" lon="5.83442">
        <ele>235.124445</ele>
        <time>2022-03-27T16:00:33.471Z</time>
      </trkpt>
      <trkpt lat="47.13372" lon="5.83342">
        <ele>241.863003</ele>
        <time>2022-03-27T16:02:26.128Z</time>
      </trkpt>
      <trkpt lat="47.13359" lon="5.83265">
        <ele>245.934045</ele>
        <time>2022-03-27T16:03:35.604Z</time>
      </trkpt>
      <trkpt lat="47.13482" lon="5.83134">
        <ele>258.291686</ele>
        <time>2022-03-27T16:06:50.312Z</time>
      </trkpt>
      <trkpt lat="47.13482" lon="5.83134">
        <ele>258.291686</ele>
        <time>2022-03-27T16:06:51.396Z</time>
      </trkpt>
      <trkpt lat="47.13514" lon="5.83101">
        <ele>261.413919</ele>
        <time>2022-03-27T16:07:40.865Z</time>
      </trkpt>
      <trkpt lat="47.13559" lon="5.8307">
        <ele>264.23015</ele>
        <time>2022-03-27T16:08:41.734Z</time>
      </trkpt>
      <trkpt lat="47.13609" lon="5.83046">
        <ele>267.223936</ele>
        <time>2022-03-27T16:09:44.572Z</time>
      </trkpt>
      <trkpt lat="47.13656" lon="5.82981">
        <ele>270.876865</ele>
        <time>2022-03-27T16:10:58.954Z</time>
      </trkpt>
      <trkpt lat="47.13714" lon="5.82886">
        <ele>276.143543</ele>
        <time>2022-03-27T16:12:41.253Z</time>
      </trkpt>
      <trkpt lat="47.13739" lon="5.82817">
        <ele>279.412219</ele>
        <time>2022-03-27T16:13:47.941Z</time>
      </trkpt>
      <trkpt lat="47.13757" lon="5.82732">
        <ele>283.106119</ele>
        <time>2022-03-27T16:15:01.428Z</time>
      </trkpt>
      <trkpt lat="47.13761" lon="5.82739">
        <ele>283.479062</ele>
        <time>2022-03-27T16:15:11.443Z</time>
      </trkpt>
      <trkpt lat="47.13837" lon="5.82872">
        <ele>290.551618</ele>
        <time>2022-03-27T16:17:33.956Z</time>
      </trkpt>
      <trkpt lat="47.13885" lon="5.82941">
        <ele>294.304788</ele>
        <time>2022-03-27T16:18:51.650Z</time>
      </trkpt>
      <trkpt lat="47.13907" lon="5.8295">
        <ele>295.416765</ele>
        <time>2022-03-27T16:19:19.727Z</time>
      </trkpt>
      <trkpt lat="47.13932" lon="5.82936">
        <ele>296.702436</ele>
        <time>2022-03-27T16:19:50.765Z</time>
      </trkpt>
      <trkpt lat="47.13951" lon="5.82942">
        <ele>297.670313</ele>
        <time>2022-03-27T16:20:13.286Z</time>
      </trkpt>
      <trkpt lat="47.13967" lon="5.8296">
        <ele>298.64768</ele>
        <time>2022-03-27T16:20:37.772Z</time>
      </trkpt>
      <trkpt lat="47.14002" lon="5.83019">
        <ele>301.230488</ele>
        <time>2022-03-27T16:21:38.284Z</time>
      </trkpt>
      <trkpt lat="47.1402" lon="5.83036">
        <ele>302.312633</ele>
        <time>2022-03-27T16:22:04.348Z</time>
      </trkpt>
      <trkpt lat="47.1402" lon="5.83036">
        <ele>302.312633</ele>
        <time>2022-03-27T16:22:04.726Z</time>
      </trkpt>
      <trkpt lat="47.1402" lon="5.83036">
        <ele>302.312633</ele>
        <time>2022-03-27T16:22:04.983Z</time>
      </trkpt>
      <trkpt lat="47.14017" lon="5.8305">
        <ele>302.884193</ele>
        <time>2022-03-27T16:22:16.025Z</time>
      </trkpt>
      <trkpt lat="47.14039" lon="5.83101">
        <ele>305.149499</ele>
        <time>2022-03-27T16:23:03.470Z</time>
      </trkpt>
      <trkpt lat="47.1406" lon="5.83202">
        <ele>309.106599</ele>
        <time>2022-03-27T16:24:28.637Z</time>
      </trkpt>
      <trkpt lat="47.1407" lon="5.83225">
        <ele>310.151546</ele>
        <time>2022-03-27T16:24:52.587Z</time>
      </trkpt>
      <trkpt lat="47.14125" lon="5.83299">
        <ele>314.789318</ele>
        <time>2022-03-27T16:26:22.711Z</time>
      </trkpt>
      <trkpt lat="47.14198" lon="5.83355">
        <ele>320.424829</ele>
        <time>2022-03-27T16:28:04.628Z</time>
      </trkpt>
      <trkpt lat="47.142" lon="5.83357">
        <ele>320.565282</ele>
        <time>2022-03-27T16:28:10.237Z</time>
      </trkpt>
      <trkpt lat="47.14316" lon="5.83429">
        <ele>328.479919</ele>
        <time>2022-03-27T16:30:45.110Z</time>
      </trkpt>
      <trkpt lat="47.14371" lon="5.83476">
        <ele>332.235739</ele>
        <time>2022-03-27T16:32:00.652Z</time>
      </trkpt>
      <trkpt lat="47.14398" lon="5.83525">
        <ele>334.755343</ele>
        <time>2022-03-27T16:32:51.412Z</time>
      </trkpt>
      <trkpt lat="47.1442" lon="5.83552">
        <ele>335.748267</ele>
        <time>2022-03-27T16:33:25.655Z</time>
      </trkpt>
      <trkpt lat="47.14474" lon="5.83589">
        <ele>337.806947</ele>
        <time>2022-03-27T16:34:33.220Z</time>
      </trkpt>
      <trkpt lat="47.14474" lon="5.83589">
        <ele>337.806947</ele>
        <time>2022-03-27T16:34:34.757Z</time>
      </trkpt>
      <trkpt lat="47.14506" lon="5.83639">
        <ele>339.42596</ele>
        <time>2022-03-27T16:35:26.049Z</time>
      </trkpt>
      <trkpt lat="47.14526" lon="5.83705">
        <ele>340.948779</ele>
        <time>2022-03-27T16:36:17.771Z</time>
      </trkpt>
      <trkpt lat="47.14527" lon="5.8373">
        <ele>340.894525</ele>
        <time>2022-03-27T16:36:36.658Z</time>
      </trkpt>
      <trkpt lat="47.14517" lon="5.83802">
        <ele>340.738881</ele>
        <time>2022-03-27T16:37:28.020Z</time>
      </trkpt>
      <trkpt lat="47.14523" lon="5.83874">
        <ele>340.583424</ele>
        <time>2022-03-27T16:38:18.972Z</time>
      </trkpt>
      <trkpt lat="47.14563" lon="5.83934">
        <ele>340.404803</ele>
        <time>2022-03-27T16:39:18.121Z</time>
      </trkpt>
      <trkpt lat="47.14603" lon="5.84028">
        <ele>340.042113</ele>
        <time>2022-03-27T16:40:35.718Z</time>
      </trkpt>
      <trkpt lat="47.14615" lon="5.84045">
        <ele>339.960484</ele>
        <time>2022-03-27T16:40:52.699Z</time>
      </trkpt>
      <trkpt lat="47.14648" lon="5.84078">
        <ele>339.769697</ele>
        <time>2022-03-27T16:41:32.073Z</time>
      </trkpt>
      <trkpt lat="47.14721" lon="5.84124">
        <ele>339.558084</ele>
        <time>2022-03-27T16:42:52.713Z</time>
      </trkpt>
      <trkpt lat="47.14733" lon="5.84139">
        <ele>339.576371</ele>
        <time>2022-03-27T16:43:09.972Z</time>
      </trkpt>
      <trkpt lat="47.14847" lon="5.84236">
        <ele>339.726435</ele>
        <time>2022-03-27T16:45:23.639Z</time>
      </trkpt>
      <trkpt lat="47.14851" lon="5.84239">
        <ele>339.68644</ele>
        <time>2022-03-27T16:45:27.708Z</time>
      </trkpt>
      <trkpt lat="47.14857" lon="5.84224">
        <ele>339.161875</ele>
        <time>2022-03-27T16:45:40.585Z</time>
      </trkpt>
      <trkpt lat="47.14832" lon="5.83982">
        <ele>332.072309</ele>
        <time>2022-03-27T16:48:40.931Z</time>
      </trkpt>
      <trkpt lat="47.14879" lon="5.83944">
        <ele>324.846495</ele>
        <time>2022-03-27T16:49:45.994Z</time>
      </trkpt>
      <trkpt lat="47.14886" lon="5.83846">
        <ele>315.688806</ele>
        <time>2022-03-27T16:51:10.191Z</time>
      </trkpt>
      <trkpt lat="47.14929" lon="5.83741">
        <ele>303.840057</ele>
        <time>2022-03-27T16:53:06.162Z</time>
      </trkpt>
      <trkpt lat="47.14964" lon="5.83724">
        <ele>298.02307</ele>
        <time>2022-03-27T16:53:59.963Z</time>
      </trkpt>
      <trkpt lat="47.14996" lon="5.83682">
        <ele>291.266484</ele>
        <time>2022-03-27T16:54:58.180Z</time>
      </trkpt>
      <trkpt lat="47.14999" lon="5.83679">
        <ele>290.72433</ele>
        <time>2022-03-27T16:55:05.311Z</time>
      </trkpt>
      <trkpt lat="47.1505" lon="5.83613">
        <ele>279.891085</ele>
        <time>2022-03-27T16:56:30.594Z</time>
      </trkpt>
      <trkpt lat="47.1511" lon="5.83551">
        <ele>276.853335</ele>
        <time>2022-03-27T16:57:55.658Z</time>
      </trkpt>
      <trkpt lat="47.15128" lon="5.83538">
        <ele>276.160768</ele>
        <time>2022-03-27T16:58:17.630Z</time>
      </trkpt>
      <trkpt lat="47.1515" lon="5.83542">
        <ele>275.417992</ele>
        <time>2022-03-27T16:58:40.412Z</time>
      </trkpt>
      <trkpt lat="47.15152" lon="5.83543">
        <ele>275.328637</ele>
        <time>2022-03-27T16:58:43.182Z</time>
      </trkpt>
      <trkpt lat="47.15155" lon="5.83429">
        <ele>273.294227</ele>
        <time>2022-03-27T17:00:07.552Z</time>
      </trkpt>
      <trkpt lat="47.1516" lon="5.83385">
        <ele>273.99655</ele>
        <time>2022-03-27T17:00:40.544Z</time>
      </trkpt>
      <trkpt lat="47.15161" lon="5.83381">
        <ele>274.072592</ele>
        <time>2022-03-27T17:00:45.245Z</time>
      </trkpt>
      <trkpt lat="47.15174" lon="5.83349">
        <ele>274.649438</ele>
        <time>2022-03-27T17:01:12.661Z</time>
      </trkpt>
      <trkpt lat="47.15205" lon="5.83309">
        <ele>275.623614</ele>
        <time>2022-03-27T17:01:59.293Z</time>
      </trkpt>
      <trkpt lat="47.15263" lon="5.83252">
        <ele>277.247198</ele>
        <time>2022-03-27T17:03:13.254Z</time>
      </trkpt>
      <trkpt lat="47.15294" lon="5.83231">
        <ele>276.674232</ele>
        <time>2022-03-27T17:03:47.568Z</time>
      </trkpt>
      <trkpt lat="47.15341" lon="5.83214">
        <ele>275.8461</ele>
        <time>2022-03-27T17:04:37.463Z</time>
      </trkpt>
      <trkpt lat="47.15454" lon="5.83144">
        <ele>273.214496</ele>
        <time>2022-03-27T17:06:48.362Z</time>
      </trkpt>
      <trkpt lat="47.1546" lon="5.83132">
        <ele>272.827954</ele>
        <time>2022-03-27T17:06:59.333Z</time>
      </trkpt>
      <trkpt lat="47.15466" lon="5.83087">
        <ele>271.675157</ele>
        <time>2022-03-27T17:07:32.251Z</time>
      </trkpt>
      <trkpt lat="47.15481" lon="5.83043">
        <ele>270.409804</ele>
        <time>2022-03-27T17:08:08.369Z</time>
      </trkpt>
      <trkpt lat="47.15496" lon="5.83006">
        <ele>269.323408</ele>
        <time>2022-03-27T17:08:39.326Z</time>
      </trkpt>
      <trkpt lat="47.15518" lon="5.82987">
        <ele>268.338251</ele>
        <time>2022-03-27T17:09:07.474Z</time>
      </trkpt>
      <trkpt lat="47.15636" lon="5.83062">
        <ele>261.599385</ele>
        <time>2022-03-27T17:11:29.460Z</time>
      </trkpt>
      <trkpt lat="47.15662" lon="5.83066">
        <ele>260.131107</ele>
        <time>2022-03-27T17:11:58.753Z</time>
      </trkpt>
      <trkpt lat="47.15662" lon="5.83066">
        <ele>260.131107</ele>
        <time>2022-03-27T17:11:58.955Z</time>
      </trkpt>
      <trkpt lat="47.15662" lon="5.83066">
        <ele>260.131107</ele>
        <time>2022-03-27T17:11:59.245Z</time>
      </trkpt>
      <trkpt lat="47.15716" lon="5.82938">
        <ele>254.727499</ele>
        <time>2022-03-27T17:13:54.568Z</time>
      </trkpt>
      <trkpt lat="47.15755" lon="5.82878">
        <ele>251.939805</ele>
        <time>2022-03-27T17:14:58.074Z</time>
      </trkpt>
      <trkpt lat="47.15836" lon="5.82792">
        <ele>248.249496</ele>
        <time>2022-03-27T17:16:45.742Z</time>
      </trkpt>
      <trkpt lat="47.15867" lon="5.82776">
        <ele>248.058956</ele>
        <time>2022-03-27T17:17:18.432Z</time>
      </trkpt>
      <trkpt lat="47.15886" lon="5.82779">
        <ele>247.944975</ele>
        <time>2022-03-27T17:17:37.865Z</time>
      </trkpt>
      <trkpt lat="47.15888" lon="5.8278">
        <ele>247.931279</ele>
        <time>2022-03-27T17:17:40.322Z</time>
      </trkpt>
      <trkpt lat="47.15944" lon="5.82718">
        <ele>247.519817</ele>
        <time>2022-03-27T17:18:51.046Z</time>
      </trkpt>
      <trkpt lat="47.15965" lon="5.82687">
        <ele>247.377555</ele>
        <time>2022-03-27T17:19:22.876Z</time>
      </trkpt>
      <trkpt lat="47.15965" lon="5.82687">
        <ele>247.377555</ele>
        <time>2022-03-27T17:19:23.058Z</time>
      </trkpt>
      <trkpt lat="47.15922" lon="5.82641">
        <ele>247.761396</ele>
        <time>2022-03-27T17:20:18.134Z</time>
      </trkpt>
      <trkpt lat="47.15857" lon="5.82554">
        <ele>248.396369</ele>
        <time>2022-03-27T17:21:49.122Z</time>
      </trkpt>
      <trkpt lat="47.15831" lon="5.82527">
        <ele>248.620491</ele>
        <time>2022-03-27T17:22:20.321Z</time>
      </trkpt>
      <trkpt lat="47.1576" lon="5.82475">
        <ele>249.388233</ele>
        <time>2022-03-27T17:23:41.333Z</time>
      </trkpt>
      <trkpt lat="47.15715" lon="5.82455">
        <ele>249.84522</ele>
        <time>2022-03-27T17:24:29.854Z</time>
      </trkpt>
      <trkpt lat="47.15604" lon="5.82447">
        <ele>250.964941</ele>
        <time>2022-03-27T17:26:28.239Z</time>
      </trkpt>
      <trkpt lat="47.15604" lon="5.82447">
        <ele>250.964941</ele>
        <time>2022-03-27T17:26:28.936Z</time>
      </trkpt>
      <trkpt lat="47.15604" lon="5.82447">
        <ele>250.964941</ele>
        <time>2022-03-27T17:26:29.958Z</time>
      </trkpt>
      <trkpt lat="47.15607" lon="5.82417">
        <ele>251.175356</ele>
        <time>2022-03-27T17:26:51.721Z</time>
      </trkpt>
      <trkpt lat="47.15647" lon="5.82308">
        <ele>252.048117</ele>
        <time>2022-03-27T17:28:19.104Z</time>
      </trkpt>
      <trkpt lat="47.15648" lon="5.82304">
        <ele>252.074963</ele>
        <time>2022-03-27T17:28:21.696Z</time>
      </trkpt>
      <trkpt lat="47.15649" lon="5.82287">
        <ele>252.194706</ele>
        <time>2022-03-27T17:28:33.603Z</time>
      </trkpt>
      <trkpt lat="47.15642" lon="5.8227">
        <ele>252.224343</ele>
        <time>2022-03-27T17:28:47.057Z</time>
      </trkpt>
      <trkpt lat="47.15521" lon="5.82139">
        <ele>251.287298</ele>
        <time>2022-03-27T17:31:20.460Z</time>
      </trkpt>
      <trkpt lat="47.15471" lon="5.81913">
        <ele>251.031217</ele>
        <time>2022-03-27T17:34:04.322Z</time>
      </trkpt>
      <trkpt lat="47.15469" lon="5.81797">
        <ele>251.942678</ele>
        <time>2022-03-27T17:35:28.321Z</time>
      </trkpt>
      <trkpt lat="47.15439" lon="5.81719">
        <ele>253.459</ele>
        <time>2022-03-27T17:36:34.427Z</time>
      </trkpt>
      <trkpt lat="47.15439" lon="5.81719">
        <ele>253.459</ele>
        <time>2022-03-27T17:36:34.808Z</time>
      </trkpt>
      <trkpt lat="47.15409" lon="5.81706">
        <ele>254.23379</ele>
        <time>2022-03-27T17:37:08.808Z</time>
      </trkpt>
      <trkpt lat="47.15344" lon="5.81697">
        <ele>255.835416</ele>
        <time>2022-03-27T17:38:23.486Z</time>
      </trkpt>
      <trkpt lat="47.15206" lon="5.81659">
        <ele>258.907408</ele>
        <time>2022-03-27T17:40:54.000Z</time>
      </trkpt>
      <trkpt lat="47.15204" lon="5.81658">
        <ele>258.945475</ele>
        <time>2022-03-27T17:40:57.220Z</time>
      </trkpt>
      <trkpt lat="47.1519" lon="5.81671">
        <ele>259.322896</ele>
        <time>2022-03-27T17:41:14.643Z</time>
      </trkpt>
      <trkpt lat="47.15105" lon="5.81655">
        <ele>260.485937</ele>
        <time>2022-03-27T17:42:43.099Z</time>
      </trkpt>
      <trkpt lat="47.15103" lon="5.81653">
        <ele>260.518042</ele>
        <time>2022-03-27T17:42:45.640Z</time>
      </trkpt>
      <trkpt lat="47.15079" lon="5.81627">
        <ele>260.898009</ele>
        <time>2022-03-27T17:43:15.826Z</time>
      </trkpt>
      <trkpt lat="47.14972" lon="5.81471">
        <ele>263.933593</ele>
        <time>2022-03-27T17:45:55.696Z</time>
      </trkpt>
      <trkpt lat="47.1495" lon="5.81376">
        <ele>265.675542</ele>
        <time>2022-03-27T17:47:11.200Z</time>
      </trkpt>
      <trkpt lat="47.14922" lon="5.81249">
        <ele>268.390125</ele>
        <time>2022-03-27T17:48:54.177Z</time>
      </trkpt>
      <trkpt lat="47.14837" lon="5.81135">
        <ele>272.033882</ele>
        <time>2022-03-27T17:51:02.525Z</time>
      </trkpt>
      <trkpt lat="47.14661" lon="5.8093">
        <ele>275.229897</ele>
        <time>2022-03-27T17:54:57.830Z</time>
      </trkpt>
      <trkpt lat="47.14607" lon="5.80808">
        <ele>276.030503</ele>
        <time>2022-03-27T17:56:39.436Z</time>
      </trkpt>
      <trkpt lat="47.14607" lon="5.80808">
        <ele>276.030503</ele>
        <time>2022-03-27T17:56:39.467Z</time>
      </trkpt>
      <trkpt lat="47.14607" lon="5.80808">
        <ele>276.030503</ele>
        <time>2022-03-27T17:56:39.500Z</time>
      </trkpt>
      <trkpt lat="47.14537" lon="5.80854">
        <ele>276.852994</ele>
        <time>2022-03-27T17:57:57.132Z</time>
      </trkpt>
      <trkpt lat="47.14455" lon="5.80912">
        <ele>278.100869</ele>
        <time>2022-03-27T17:59:31.962Z</time>
      </trkpt>
      <trkpt lat="47.14311" lon="5.81015">
        <ele>281.420629</ele>
        <time>2022-03-27T18:02:25.938Z</time>
      </trkpt>
      <trkpt lat="47.14311" lon="5.81015">
        <ele>281.420629</ele>
        <time>2022-03-27T18:02:27.769Z</time>
      </trkpt>
      <trkpt lat="47.14119" lon="5.81147">
        <ele>285.596528</ele>
        <time>2022-03-27T18:06:14.782Z</time>
      </trkpt>
      <trkpt lat="47.14016" lon="5.81203">
        <ele>286.417533</ele>
        <time>2022-03-27T18:08:08.715Z</time>
      </trkpt>
      <trkpt lat="47.14016" lon="5.81203">
        <ele>286.417533</ele>
        <time>2022-03-27T18:08:09.449Z</time>
      </trkpt>
      <trkpt lat="47.1404" lon="5.81347">
        <ele>286.630283</ele>
        <time>2022-03-27T18:09:50.137Z</time>
      </trkpt>
      <trkpt lat="47.14078" lon="5.8161">
        <ele>282.732227</ele>
        <time>2022-03-27T18:13:01.421Z</time>
      </trkpt>
      <trkpt lat="47.14077" lon="5.81609">
        <ele>282.691168</ele>
        <time>2022-03-27T18:13:03.680Z</time>
      </trkpt>
      <trkpt lat="47.1403" lon="5.81595">
        <ele>280.826395</ele>
        <time>2022-03-27T18:13:55.574Z</time>
      </trkpt>
      <trkpt lat="47.13982" lon="5.81539">
        <ele>278.399981</ele>
        <time>2022-03-27T18:15:02.045Z</time>
      </trkpt>
      <trkpt lat="47.13945" lon="5.8151">
        <ele>276.704065</ele>
        <time>2022-03-27T18:15:48.431Z</time>
      </trkpt>
      <trkpt lat="47.13921" lon="5.81504">
        <ele>275.728683</ele>
        <time>2022-03-27T18:16:14.834Z</time>
      </trkpt>
      <trkpt lat="47.13924" lon="5.81501">
        <ele>275.58961</ele>
        <time>2022-03-27T18:16:19.068Z</time>
      </trkpt>
      <trkpt lat="47.13921" lon="5.81504">
        <ele>275.450537</ele>
        <time>2022-03-27T18:16:23.170Z</time>
      </trkpt>
      <trkpt lat="47.139" lon="5.81499">
        <ele>275.129635</ele>
        <time>2022-03-27T18:16:46.384Z</time>
      </trkpt>
      <trkpt lat="47.13859" lon="5.81516">
        <ele>274.553105</ele>
        <time>2022-03-27T18:17:30.548Z</time>
      </trkpt>
      <trkpt lat="47.13801" lon="5.81508">
        <ele>273.752275</ele>
        <time>2022-03-27T18:18:30.773Z</time>
      </trkpt>
      <trkpt lat="47.13774" lon="5.81557">
        <ele>273.167919</ele>
        <time>2022-03-27T18:19:14.194Z</time>
      </trkpt>
      <trkpt lat="47.13753" lon="5.8157">
        <ele>272.999445</ele>
        <time>2022-03-27T18:19:37.333Z</time>
      </trkpt>
      <trkpt lat="47.13707" lon="5.81598">
        <ele>273.344234</ele>
        <time>2022-03-27T18:20:30.441Z</time>
      </trkpt>
      <trkpt lat="47.13665" lon="5.81608">
        <ele>273.634765</ele>
        <time>2022-03-27T18:21:15.238Z</time>
      </trkpt>
      <trkpt lat="47.13662" lon="5.81609">
        <ele>273.652754</ele>
        <time>2022-03-27T18:21:17.894Z</time>
      </trkpt>
      <trkpt lat="47.13614" lon="5.81631">
        <ele>273.997885</ele>
        <time>2022-03-27T18:22:09.862Z</time>
      </trkpt>
      <trkpt lat="47.13582" lon="5.81633">
        <ele>274.121566</ele>
        <time>2022-03-27T18:22:42.332Z</time>
      </trkpt>
      <trkpt lat="47.13513" lon="5.81652">
        <ele>273.21266</ele>
        <time>2022-03-27T18:23:53.732Z</time>
      </trkpt>
      <trkpt lat="47.13489" lon="5.81641">
        <ele>272.887595</ele>
        <time>2022-03-27T18:24:19.286Z</time>
      </trkpt>
      <trkpt lat="47.13441" lon="5.81639">
        <ele>272.254949</ele>
        <time>2022-03-27T18:25:09.359Z</time>
      </trkpt>
      <trkpt lat="47.13423" lon="5.81628">
        <ele>272.011998</ele>
        <time>2022-03-27T18:25:29.152Z</time>
      </trkpt>
      <trkpt lat="47.13425" lon="5.81626">
        <ele>271.986386</ele>
        <time>2022-03-27T18:25:31.280Z</time>
      </trkpt>
      <trkpt lat="47.13423" lon="5.81628">
        <ele>271.960774</ele>
        <time>2022-03-27T18:25:33.265Z</time>
      </trkpt>
      <trkpt lat="47.13408" lon="5.8162">
        <ele>271.568901</ele>
        <time>2022-03-27T18:25:50.014Z</time>
      </trkpt>
      <trkpt lat="47.13355" lon="5.81564">
        <ele>269.157259</ele>
        <time>2022-03-27T18:27:01.286Z</time>
      </trkpt>
      <trkpt lat="47.13345" lon="5.81583">
        <ele>268.575216</ele>
        <time>2022-03-27T18:27:18.878Z</time>
      </trkpt>
      <trkpt lat="47.13293" lon="5.81634">
        <ele>266.271006</ele>
        <time>2022-03-27T18:28:26.443Z</time>
      </trkpt>
      <trkpt lat="47.13295" lon="5.81635">
        <ele>266.177487</ele>
        <time>2022-03-27T18:28:29.677Z</time>
      </trkpt>
      <trkpt lat="47.13321" lon="5.81649">
        <ele>265.200738</ele>
        <time>2022-03-27T18:28:59.302Z</time>
      </trkpt>
      <trkpt lat="47.13335" lon="5.81672">
        <ele>264.684262</ele>
        <time>2022-03-27T18:29:22.075Z</time>
      </trkpt>
      <trkpt lat="47.13352" lon="5.81687">
        <ele>264.171948</ele>
        <time>2022-03-27T18:29:44.157Z</time>
      </trkpt>
      <trkpt lat="47.13445" lon="5.818">
        <ele>261.167426</ele>
        <time>2022-03-27T18:31:51.778Z</time>
      </trkpt>
      <trkpt lat="47.13477" lon="5.81873">
        <ele>262.830651</ele>
        <time>2022-03-27T18:32:52.261Z</time>
      </trkpt>
      <trkpt lat="47.13505" lon="5.81916">
        <ele>264.78797</ele>
        <time>2022-03-27T18:33:39.094Z</time>
      </trkpt>
      <trkpt lat="47.13545" lon="5.82019">
        <ele>268.600514</ele>
        <time>2022-03-27T18:35:18.389Z</time>
      </trkpt>
      <trkpt lat="47.13608" lon="5.82082">
        <ele>275.12646</ele>
        <time>2022-03-27T18:36:59.457Z</time>
      </trkpt>
      <trkpt lat="47.13651" lon="5.82152">
        <ele>281.213257</ele>
        <time>2022-03-27T18:38:26.291Z</time>
      </trkpt>
      <trkpt lat="47.13704" lon="5.82189">
        <ele>286.544448</ele>
        <time>2022-03-27T18:39:44.180Z</time>
      </trkpt>
      <trkpt lat="47.13704" lon="5.82189">
        <ele>286.544448</ele>
        <time>2022-03-27T18:39:47.386Z</time>
      </trkpt>
      <trkpt lat="47.13704" lon="5.82189">
        <ele>286.544448</ele>
        <time>2022-03-27T18:39:49.571Z</time>
      </trkpt>
      <trkpt lat="47.13747" lon="5.82229">
        <ele>289.181475</ele>
        <time>2022-03-27T18:40:53.304Z</time>
      </trkpt>
      <trkpt lat="47.13799" lon="5.82253">
        <ele>292.008564</ele>
        <time>2022-03-27T18:41:58.146Z</time>
      </trkpt>
      <trkpt lat="47.13803" lon="5.82259">
        <ele>292.291625</ele>
        <time>2022-03-27T18:42:04.299Z</time>
      </trkpt>
      <trkpt lat="47.13831" lon="5.82307">
        <ele>294.488125</ele>
        <time>2022-03-27T18:42:51.589Z</time>
      </trkpt>
      <trkpt lat="47.13897" lon="5.82375">
        <ele>295.502683</ele>
        <time>2022-03-27T18:44:17.297Z</time>
      </trkpt>
      <trkpt lat="47.13898" lon="5.82377">
        <ele>295.499533</ele>
        <time>2022-03-27T18:44:19.852Z</time>
      </trkpt>
      <trkpt lat="47.13902" lon="5.82384">
        <ele>295.491292</ele>
        <time>2022-03-27T18:44:26.049Z</time>
      </trkpt>
      <trkpt lat="47.13919" lon="5.82481">
        <ele>295.397131</ele>
        <time>2022-03-27T18:45:35.941Z</time>
      </trkpt>
      <trkpt lat="47.13954" lon="5.82553">
        <ele>294.624248</ele>
        <time>2022-03-27T18:46:38.460Z</time>
      </trkpt>
      <trkpt lat="47.13891" lon="5.82549">
        <ele>291.808036</ele>
        <time>2022-03-27T18:47:45.786Z</time>
      </trkpt>
      <trkpt lat="47.13869" lon="5.82568">
        <ele>290.655701</ele>
        <time>2022-03-27T18:48:13.900Z</time>
      </trkpt>
      <trkpt lat="47.13825" lon="5.82642">
        <ele>287.672899</ele>
        <time>2022-03-27T18:49:29.619Z</time>
      </trkpt>
      <trkpt lat="47.1378" lon="5.82693">
        <ele>284.440629</ele>
        <time>2022-03-27T18:50:33.798Z</time>
      </trkpt>
      <trkpt lat="47.1376" lon="5.82718">
        <ele>282.856522</ele>
        <time>2022-03-27T18:51:03.573Z</time>
      </trkpt>
      <trkpt lat="47.13757" lon="5.82732">
        <ele>282.252185</ele>
        <time>2022-03-27T18:51:14.851Z</time>
      </trkpt>
      <trkpt lat="47.13752" lon="5.82731">
        <ele>281.958317</ele>
        <time>2022-03-27T18:51:20.573Z</time>
      </trkpt>
      <trkpt lat="47.13745" lon="5.82729">
        <ele>281.543753</ele>
        <time>2022-03-27T18:51:28.510Z</time>
      </trkpt>
      <trkpt lat="47.13682" lon="5.8265">
        <ele>276.64693</ele>
        <time>2022-03-27T18:53:00.928Z</time>
      </trkpt>
      <trkpt lat="47.13668" lon="5.82647">
        <ele>275.898704</ele>
        <time>2022-03-27T18:53:16.977Z</time>
      </trkpt>
      <trkpt lat="47.13627" lon="5.82669">
        <ele>273.636691</ele>
        <time>2022-03-27T18:54:05.730Z</time>
      </trkpt>
      <trkpt lat="47.13593" lon="5.82665">
        <ele>271.88051</ele>
        <time>2022-03-27T18:54:42.514Z</time>
      </trkpt>
      <trkpt lat="47.13574" lon="5.82691">
        <ele>270.557875</ele>
        <time>2022-03-27T18:55:10.106Z</time>
      </trkpt>
      <trkpt lat="47.13551" lon="5.82702">
        <ele>269.28145</ele>
        <time>2022-03-27T18:55:36.822Z</time>
      </trkpt>
      <trkpt lat="47.13484" lon="5.82683">
        <ele>265.64344</ele>
        <time>2022-03-27T18:56:53.951Z</time>
      </trkpt>
      <trkpt lat="47.1347" lon="5.82685">
        <ele>264.88693</ele>
        <time>2022-03-27T18:57:09.622Z</time>
      </trkpt>
      <trkpt lat="47.13449" lon="5.82708">
        <ele>263.445229</ele>
        <time>2022-03-27T18:57:39.377Z</time>
      </trkpt>
      <trkpt lat="47.13422" lon="5.82755">
        <ele>261.148436</ele>
        <time>2022-03-27T18:58:26.508Z</time>
      </trkpt>
      <trkpt lat="47.13392" lon="5.82789">
        <ele>259.105419</ele>
        <time>2022-03-27T18:59:07.823Z</time>
      </trkpt>
      <trkpt lat="47.13392" lon="5.82789">
        <ele>259.105419</ele>
        <time>2022-03-27T18:59:08.249Z</time>
      </trkpt>
      <trkpt lat="47.13392" lon="5.82789">
        <ele>259.105419</ele>
        <time>2022-03-27T18:59:08.861Z</time>
      </trkpt>
      <trkpt lat="47.1332" lon="5.82893">
        <ele>256.035731</ele>
        <time>2022-03-27T19:00:57.613Z</time>
      </trkpt>
      <trkpt lat="47.13478" lon="5.83128">
        <ele>251.547863</ele>
        <time>2022-03-27T19:04:45.727Z</time>
      </trkpt>
      <trkpt lat="47.13482" lon="5.83134">
        <ele>251.433365</ele>
        <time>2022-03-27T19:04:52.537Z</time>
      </trkpt>
      <trkpt lat="47.13359" lon="5.83265">
        <ele>244.330386</ele>
        <time>2022-03-27T19:07:39.057Z</time>
      </trkpt>
      <trkpt lat="47.13372" lon="5.83342">
        <ele>240.89957</ele>
        <time>2022-03-27T19:08:42.080Z</time>
      </trkpt>
      <trkpt lat="47.13315" lon="5.83442">
        <ele>238.826892</ele>
        <time>2022-03-27T19:10:25.039Z</time>
      </trkpt>
      <trkpt lat="47.13289" lon="5.8347">
        <ele>238.826892</ele>
        <time>2022-03-27T19:11:01.017Z</time>
      </trkpt>
      <trkpt lat="47.13289" lon="5.8347">
        <ele>238.826892</ele>
        <time>2022-03-27T19:11:01.882Z</time>
      </trkpt>
      <trkpt lat="47.13289" lon="5.8347">
        <ele>238.826892</ele>
        <time>2022-03-27T19:11:02.480Z</time>
      </trkpt>
      <trkpt lat="47.13227" lon="5.83468">
        <ele>238.826892</ele>
        <time>2022-03-27T19:12:11.338Z</time>
      </trkpt>
      <trkpt lat="47.13213" lon="5.83487">
        <ele>238.826892</ele>
        <time>2022-03-27T19:12:32.025Z</time>
      </trkpt>
      <trkpt lat="47.13213" lon="5.83494">
        <ele>238.826892</ele>
        <time>2022-03-27T19:12:37.537Z</time>
      </trkpt>
      <trkpt lat="47.13213" lon="5.83496">
        <ele>238.826892</ele>
        <time>2022-03-27T19:12:39.169Z</time>
      </trkpt>
    </trkseg>
  </trk>
</gpx>